Terminal Aerodrome Forecast
Issued by NWS

Home | Current Version | Previous Version | Text Only | Print | Product List | Glossary Off
Versions: 1 2 3 4 5 6 7 8 9 10 11 12 13 14 15 16 17 18 19 20 21 22 23 24 25 26 27 28 29 30 31 32 33 34 35 36 37 38

352
FTUS43 KGRB 261738
TAFRHI
TAF
KRHI 261738Z 2618/2718 18006KT P6SM SCT025 BKN060
      TEMPO 2618/2622 -SHRA BKN025
     FM270700 22004KT 5SM BR BKN040
      TEMPO 2708/2712 1SM BR OVC002
     FM271300 25004KT P6SM SCT003 SCT090
     FM271500 25004KT P6SM BKN090=

USA.gov is the U.S. government's official web portal to all federal, state and local government web resources and services.